sensor_id;sensor_type;location;lat;lon;timestamp;temperature;humidity
33564;DHT22;19894;48.452;11.494;2023-04-23T00:00:48;19.00;50.40
33564;DHT22;19894;48.452;11.494;2023-04-23T00:03:14;18.90;50.30
33564;DHT22;19894;48.452;11.494;2023-04-23T00:05:43;18.90;50.40
33564;DHT22;19894;48.452;11.494;2023-04-23T00:08:09;18.90;50.40
33564;DHT22;19894;48.452;11.494;2023-04-23T00:10:36;18.90;50.30
33564;DHT22;19894;48.452;11.494;2023-04-23T00:13:02;18.90;50.30
33564;DHT22;19894;48.452;11.494;2023-04-23T00:15:28;18.90;50.30
33564;DHT22;19894;48.452;11.494;2023-04-23T00:17:54;19.00;50.30
33564;DHT22;19894;48.452;11.494;2023-04-23T00:20:20;19.00;50.30
33564;DHT22;19894;48.452;11.494;2023-04-23T00:22:46;19.00;50.30
33564;DHT22;19894;48.452;11.494;2023-04-23T00:25:11;18.90;50.20
33564;DHT22;19894;48.452;11.494;2023-04-23T00:27:37;18.90;50.20
33564;DHT22;19894;48.452;11.494;2023-04-23T00:30:03;19.00;50.30
33564;DHT22;19894;48.452;11.494;2023-04-23T00:32:29;18.90;50.30
33564;DHT22;19894;48.452;11.494;2023-04-23T00:34:55;18.90;50.30
33564;DHT22;19894;48.452;11.494;2023-04-23T00:37:21;18.90;50.40
33564;DHT22;19894;48.452;11.494;2023-04-23T00:39:47;18.90;50.40
33564;DHT22;19894;48.452;11.494;2023-04-23T00:42:12;18.90;50.40
33564;DHT22;19894;48.452;11.494;2023-04-23T00:44:38;18.90;50.30
33564;DHT22;19894;48.452;11.494;2023-04-23T00:47:05;18.90;50.30
33564;DHT22;19894;48.452;11.494;2023-04-23T00:49:32;18.90;50.40
33564;DHT22;19894;48.452;11.494;2023-04-23T00:51:58;18.90;50.40
33564;DHT22;19894;48.452;11.494;2023-04-23T00:54:25;18.90;50.50
33564;DHT22;19894;48.452;11.494;2023-04-23T00:56:51;18.90;50.50
33564;DHT22;19894;48.452;11.494;2023-04-23T00:59:17;18.90;50.60
33564;DHT22;19894;48.452;11.494;2023-04-23T01:01:43;19.00;50.60
33564;DHT22;19894;48.452;11.494;2023-04-23T01:04:12;18.90;50.60
33564;DHT22;19894;48.452;11.494;2023-04-23T01:06:39;18.90;50.70
33564;DHT22;19894;48.452;11.494;2023-04-23T01:09:06;18.90;50.60
33564;DHT22;19894;48.452;11.494;2023-04-23T01:11:32;18.90;50.70
33564;DHT22;19894;48.452;11.494;2023-04-23T01:13:58;18.90;50.70
33564;DHT22;19894;48.452;11.494;2023-04-23T01:16:24;19.00;50.70
33564;DHT22;19894;48.452;11.494;2023-04-23T01:18:50;19.00;50.70
33564;DHT22;19894;48.452;11.494;2023-04-23T01:21:16;19.00;50.70
33564;DHT22;19894;48.452;11.494;2023-04-23T01:23:42;19.00;50.70
33564;DHT22;19894;48.452;11.494;2023-04-23T01:26:08;19.00;50.70
33564;DHT22;19894;48.452;11.494;2023-04-23T01:28:35;19.00;50.60
33564;DHT22;19894;48.452;11.494;2023-04-23T01:31:01;19.00;50.70
33564;DHT22;19894;48.452;11.494;2023-04-23T01:33:29;18.90;50.60
33564;DHT22;19894;48.452;11.494;2023-04-23T01:35:56;18.90;50.60
33564;DHT22;19894;48.452;11.494;2023-04-23T01:38:22;18.90;50.70
33564;DHT22;19894;48.452;11.494;2023-04-23T01:40:49;18.90;50.60
33564;DHT22;19894;48.452;11.494;2023-04-23T01:43:16;18.90;50.70
33564;DHT22;19894;48.452;11.494;2023-04-23T01:45:41;18.90;50.70
33564;DHT22;19894;48.452;11.494;2023-04-23T01:48:07;18.90;50.70
33564;DHT22;19894;48.452;11.494;2023-04-23T01:50:33;18.90;50.60
33564;DHT22;19894;48.452;11.494;2023-04-23T01:52:58;18.90;50.60
33564;DHT22;19894;48.452;11.494;2023-04-23T01:55:24;18.90;50.70
33564;DHT22;19894;48.452;11.494;2023-04-23T01:57:49;18.90;50.70
33564;DHT22;19894;48.452;11.494;2023-04-23T02:00:16;18.90;50.90
33564;DHT22;19894;48.452;11.494;2023-04-23T02:02:43;18.90;50.80
33564;DHT22;19894;48.452;11.494;2023-04-23T02:05:16;18.90;50.90
33564;DHT22;19894;48.452;11.494;2023-04-23T02:07:47;18.90;50.90
33564;DHT22;19894;48.452;11.494;2023-04-23T02:10:13;18.90;50.90
33564;DHT22;19894;48.452;11.494;2023-04-23T02:12:39;18.90;51.00
33564;DHT22;19894;48.452;11.494;2023-04-23T02:15:07;19.00;51.00
33564;DHT22;19894;48.452;11.494;2023-04-23T02:17:33;18.90;51.00
33564;DHT22;19894;48.452;11.494;2023-04-23T02:19:59;19.00;51.00
33564;DHT22;19894;48.452;11.494;2023-04-23T02:22:26;19.00;51.00
33564;DHT22;19894;48.452;11.494;2023-04-23T02:24:53;19.00;50.90
33564;DHT22;19894;48.452;11.494;2023-04-23T02:27:19;19.00;50.90
33564;DHT22;19894;48.452;11.494;2023-04-23T02:29:46;19.00;50.90
33564;DHT22;19894;48.452;11.494;2023-04-23T02:32:12;19.00;50.80
33564;DHT22;19894;48.452;11.494;2023-04-23T02:34:37;19.00;50.80
33564;DHT22;19894;48.452;11.494;2023-04-23T02:37:03;19.00;50.80
33564;DHT22;19894;48.452;11.494;2023-04-23T02:39:32;18.90;50.80
33564;DHT22;19894;48.452;11.494;2023-04-23T02:41:58;19.00;50.90
33564;DHT22;19894;48.452;11.494;2023-04-23T02:44:24;18.90;50.90
33564;DHT22;19894;48.452;11.494;2023-04-23T02:46:50;18.90;51.00
33564;DHT22;19894;48.452;11.494;2023-04-23T02:49:16;18.90;51.00
33564;DHT22;19894;48.452;11.494;2023-04-23T02:51:42;19.00;51.00
33564;DHT22;19894;48.452;11.494;2023-04-23T02:54:08;18.90;50.90
33564;DHT22;19894;48.452;11.494;2023-04-23T02:56:33;18.90;50.90
33564;DHT22;19894;48.452;11.494;2023-04-23T02:58:59;18.90;50.90
33564;DHT22;19894;48.452;11.494;2023-04-23T03:01:25;18.90;50.80
33564;DHT22;19894;48.452;11.494;2023-04-23T03:03:51;18.90;51.10
33564;DHT22;19894;48.452;11.494;2023-04-23T03:06:17;18.90;51.00
33564;DHT22;19894;48.452;11.494;2023-04-23T03:08:42;18.90;51.10
33564;DHT22;19894;48.452;11.494;2023-04-23T03:11:08;18.90;51.10
33564;DHT22;19894;48.452;11.494;2023-04-23T03:13:33;18.90;51.20
33564;DHT22;19894;48.452;11.494;2023-04-23T03:15:59;18.90;51.20
33564;DHT22;19894;48.452;11.494;2023-04-23T03:18:24;18.90;51.20
33564;DHT22;19894;48.452;11.494;2023-04-23T03:20:50;18.90;51.10
33564;DHT22;19894;48.452;11.494;2023-04-23T03:23:16;19.00;51.20
33564;DHT22;19894;48.452;11.494;2023-04-23T03:25:41;19.00;51.20
33564;DHT22;19894;48.452;11.494;2023-04-23T03:28:07;19.00;51.20
33564;DHT22;19894;48.452;11.494;2023-04-23T03:30:33;19.00;51.10
33564;DHT22;19894;48.452;11.494;2023-04-23T03:32:58;19.00;51.10
33564;DHT22;19894;48.452;11.494;2023-04-23T03:35:24;19.00;51.10
33564;DHT22;19894;48.452;11.494;2023-04-23T03:37:51;19.00;51.20
33564;DHT22;19894;48.452;11.494;2023-04-23T03:40:17;19.00;51.20
33564;DHT22;19894;48.452;11.494;2023-04-23T03:42:43;19.00;51.20
33564;DHT22;19894;48.452;11.494;2023-04-23T03:45:08;18.90;51.30
33564;DHT22;19894;48.452;11.494;2023-04-23T03:47:34;18.90;51.30
33564;DHT22;19894;48.452;11.494;2023-04-23T03:50:01;18.90;51.30
33564;DHT22;19894;48.452;11.494;2023-04-23T03:52:26;18.90;51.30
33564;DHT22;19894;48.452;11.494;2023-04-23T03:54:52;18.90;51.40
33564;DHT22;19894;48.452;11.494;2023-04-23T03:57:17;18.90;51.30
33564;DHT22;19894;48.452;11.494;2023-04-23T03:59:43;18.90;51.30
33564;DHT22;19894;48.452;11.494;2023-04-23T04:02:09;19.00;51.30
33564;DHT22;19894;48.452;11.494;2023-04-23T04:04:35;18.90;51.20
33564;DHT22;19894;48.452;11.494;2023-04-23T04:07:00;18.90;51.40
33564;DHT22;19894;48.452;11.494;2023-04-23T04:09:26;18.90;51.30
33564;DHT22;19894;48.452;11.494;2023-04-23T04:11:52;18.90;51.60
33564;DHT22;19894;48.452;11.494;2023-04-23T04:14:21;19.00;51.60
33564;DHT22;19894;48.452;11.494;2023-04-23T04:16:47;18.90;51.60
33564;DHT22;19894;48.452;11.494;2023-04-23T04:19:13;18.90;51.50
33564;DHT22;19894;48.452;11.494;2023-04-23T04:21:39;18.90;51.60
33564;DHT22;19894;48.452;11.494;2023-04-23T04:24:04;18.90;51.60
33564;DHT22;19894;48.452;11.494;2023-04-23T04:26:31;19.00;51.70
33564;DHT22;19894;48.452;11.494;2023-04-23T04:28:57;19.00;51.70
33564;DHT22;19894;48.452;11.494;2023-04-23T04:31:24;19.00;51.70
33564;DHT22;19894;48.452;11.494;2023-04-23T04:33:52;19.00;51.70
33564;DHT22;19894;48.452;11.494;2023-04-23T04:36:18;19.00;51.70
33564;DHT22;19894;48.452;11.494;2023-04-23T04:38:44;19.00;51.60
33564;DHT22;19894;48.452;11.494;2023-04-23T04:41:09;19.00;51.60
33564;DHT22;19894;48.452;11.494;2023-04-23T04:43:35;19.00;51.60
33564;DHT22;19894;48.452;11.494;2023-04-23T04:46:01;19.00;51.70
33564;DHT22;19894;48.452;11.494;2023-04-23T04:48:28;19.00;51.80
33564;DHT22;19894;48.452;11.494;2023-04-23T04:50:53;19.00;51.80
33564;DHT22;19894;48.452;11.494;2023-04-23T04:53:19;19.00;51.90
33564;DHT22;19894;48.452;11.494;2023-04-23T04:55:45;18.90;51.80
33564;DHT22;19894;48.452;11.494;2023-04-23T04:58:10;18.90;51.90
33564;DHT22;19894;48.452;11.494;2023-04-23T05:00:36;18.90;51.90
33564;DHT22;19894;48.452;11.494;2023-04-23T05:03:02;18.90;52.00
33564;DHT22;19894;48.452;11.494;2023-04-23T05:05:28;18.90;52.00
33564;DHT22;19894;48.452;11.494;2023-04-23T05:07:54;18.90;52.00
33564;DHT22;19894;48.452;11.494;2023-04-23T05:10:23;18.90;51.90
33564;DHT22;19894;48.452;11.494;2023-04-23T05:12:49;18.90;52.00
33564;DHT22;19894;48.452;11.494;2023-04-23T05:15:16;18.90;52.20
33564;DHT22;19894;48.452;11.494;2023-04-23T05:17:42;18.90;52.20
33564;DHT22;19894;48.452;11.494;2023-04-23T05:20:08;18.90;52.30
33564;DHT22;19894;48.452;11.494;2023-04-23T05:22:37;19.00;52.40
33564;DHT22;19894;48.452;11.494;2023-04-23T05:25:04;18.90;52.30
33564;DHT22;19894;48.452;11.494;2023-04-23T05:27:30;19.00;52.30
33564;DHT22;19894;48.452;11.494;2023-04-23T05:29:55;19.00;52.30
33564;DHT22;19894;48.452;11.494;2023-04-23T05:32:21;19.00;52.40
33564;DHT22;19894;48.452;11.494;2023-04-23T05:34:46;19.00;52.30
33564;DHT22;19894;48.452;11.494;2023-04-23T05:37:12;19.00;52.30
33564;DHT22;19894;48.452;11.494;2023-04-23T05:39:38;19.00;52.20
33564;DHT22;19894;48.452;11.494;2023-04-23T05:42:03;19.00;52.20
33564;DHT22;19894;48.452;11.494;2023-04-23T05:44:29;19.00;52.10
33564;DHT22;19894;48.452;11.494;2023-04-23T05:46:54;19.00;52.10
33564;DHT22;19894;48.452;11.494;2023-04-23T05:49:20;19.00;52.20
33564;DHT22;19894;48.452;11.494;2023-04-23T05:51:46;19.00;52.20
33564;DHT22;19894;48.452;11.494;2023-04-23T05:54:11;19.00;52.30
33564;DHT22;19894;48.452;11.494;2023-04-23T05:56:37;19.00;52.40
33564;DHT22;19894;48.452;11.494;2023-04-23T05:59:02;19.00;52.40
33564;DHT22;19894;48.452;11.494;2023-04-23T06:01:28;19.00;52.50
33564;DHT22;19894;48.452;11.494;2023-04-23T06:03:53;18.90;52.50
33564;DHT22;19894;48.452;11.494;2023-04-23T06:06:19;19.00;52.50
33564;DHT22;19894;48.452;11.494;2023-04-23T06:08:45;18.90;52.50
33564;DHT22;19894;48.452;11.494;2023-04-23T06:11:10;18.90;52.40
33564;DHT22;19894;48.452;11.494;2023-04-23T06:13:36;18.90;52.40
33564;DHT22;19894;48.452;11.494;2023-04-23T06:16:06;18.90;52.50
33564;DHT22;19894;48.452;11.494;2023-04-23T06:18:32;18.90;52.50
33564;DHT22;19894;48.452;11.494;2023-04-23T06:20:58;18.90;52.70
33564;DHT22;19894;48.452;11.494;2023-04-23T06:23:26;18.90;52.70
33564;DHT22;19894;48.452;11.494;2023-04-23T06:25:52;18.90;53.30
33564;DHT22;19894;48.452;11.494;2023-04-23T06:28:17;18.90;52.80
33564;DHT22;19894;48.452;11.494;2023-04-23T06:30:43;19.00;52.80
33564;DHT22;19894;48.452;11.494;2023-04-23T06:33:08;19.00;52.80
33564;DHT22;19894;48.452;11.494;2023-04-23T06:35:34;19.00;52.90
33564;DHT22;19894;48.452;11.494;2023-04-23T06:37:59;19.00;52.90
33564;DHT22;19894;48.452;11.494;2023-04-23T06:40:25;19.00;52.90
33564;DHT22;19894;48.452;11.494;2023-04-23T06:42:51;19.00;52.80
33564;DHT22;19894;48.452;11.494;2023-04-23T06:45:17;19.00;52.80
33564;DHT22;19894;48.452;11.494;2023-04-23T06:47:42;19.00;52.90
33564;DHT22;19894;48.452;11.494;2023-04-23T06:50:08;19.00;52.80
33564;DHT22;19894;48.452;11.494;2023-04-23T06:52:33;19.00;52.80
33564;DHT22;19894;48.452;11.494;2023-04-23T06:55:00;19.00;52.90
33564;DHT22;19894;48.452;11.494;2023-04-23T06:57:25;19.00;52.90
33564;DHT22;19894;48.452;11.494;2023-04-23T06:59:51;19.00;53.00
33564;DHT22;19894;48.452;11.494;2023-04-23T07:02:16;19.00;53.10
33564;DHT22;19894;48.452;11.494;2023-04-23T07:04:42;18.90;53.00
33564;DHT22;19894;48.452;11.494;2023-04-23T07:07:07;19.00;53.20
33564;DHT22;19894;48.452;11.494;2023-04-23T07:09:33;18.90;53.10
33564;DHT22;19894;48.452;11.494;2023-04-23T07:11:58;19.00;53.20
33564;DHT22;19894;48.452;11.494;2023-04-23T07:14:24;18.90;53.10
33564;DHT22;19894;48.452;11.494;2023-04-23T07:16:50;18.90;53.10
33564;DHT22;19894;48.452;11.494;2023-04-23T07:19:16;18.90;53.10
33564;DHT22;19894;48.452;11.494;2023-04-23T07:21:41;18.90;53.20
33564;DHT22;19894;48.452;11.494;2023-04-23T07:24:07;18.90;53.40
33564;DHT22;19894;48.452;11.494;2023-04-23T07:26:35;19.00;53.50
33564;DHT22;19894;48.452;11.494;2023-04-23T07:29:03;19.00;53.60
33564;DHT22;19894;48.452;11.494;2023-04-23T07:31:28;19.00;53.60
33564;DHT22;19894;48.452;11.494;2023-04-23T07:33:56;19.00;53.60
33564;DHT22;19894;48.452;11.494;2023-04-23T07:36:22;19.00;53.60
33564;DHT22;19894;48.452;11.494;2023-04-23T07:38:48;19.00;53.70
33564;DHT22;19894;48.452;11.494;2023-04-23T07:41:14;19.00;53.60
33564;DHT22;19894;48.452;11.494;2023-04-23T07:43:39;19.00;53.60
33564;DHT22;19894;48.452;11.494;2023-04-23T07:46:06;19.00;53.60
33564;DHT22;19894;48.452;11.494;2023-04-23T07:48:32;19.00;53.50
33564;DHT22;19894;48.452;11.494;2023-04-23T07:51:00;19.00;53.40
33564;DHT22;19894;48.452;11.494;2023-04-23T07:53:25;19.00;53.40
33564;DHT22;19894;48.452;11.494;2023-04-23T07:55:55;19.00;53.40
33564;DHT22;19894;48.452;11.494;2023-04-23T07:58:22;19.00;53.50
33564;DHT22;19894;48.452;11.494;2023-04-23T08:00:47;19.00;53.50
33564;DHT22;19894;48.452;11.494;2023-04-23T08:03:13;19.00;53.50
33564;DHT22;19894;48.452;11.494;2023-04-23T08:05:39;19.00;53.60
33564;DHT22;19894;48.452;11.494;2023-04-23T08:08:06;19.00;53.60
33564;DHT22;19894;48.452;11.494;2023-04-23T08:10:32;19.00;53.80
33564;DHT22;19894;48.452;11.494;2023-04-23T08:12:58;19.00;53.80
33564;DHT22;19894;48.452;11.494;2023-04-23T08:15:23;19.00;53.60
33564;DHT22;19894;48.452;11.494;2023-04-23T08:17:49;19.00;53.60
33564;DHT22;19894;48.452;11.494;2023-04-23T08:20:15;19.00;53.60
33564;DHT22;19894;48.452;11.494;2023-04-23T08:22:40;18.90;53.60
33564;DHT22;19894;48.452;11.494;2023-04-23T08:25:06;18.90;53.60
33564;DHT22;19894;48.452;11.494;2023-04-23T08:27:32;19.00;53.70
33564;DHT22;19894;48.452;11.494;2023-04-23T08:29:57;19.00;53.90
33564;DHT22;19894;48.452;11.494;2023-04-23T08:32:23;18.90;53.90
33564;DHT22;19894;48.452;11.494;2023-04-23T08:34:48;19.00;54.10
33564;DHT22;19894;48.452;11.494;2023-04-23T08:37:14;19.00;54.10
33564;DHT22;19894;48.452;11.494;2023-04-23T08:39:39;19.00;54.10
33564;DHT22;19894;48.452;11.494;2023-04-23T08:42:22;19.00;54.10
33564;DHT22;19894;48.452;11.494;2023-04-23T08:44:50;19.00;54.10
33564;DHT22;19894;48.452;11.494;2023-04-23T08:47:17;19.00;54.20
33564;DHT22;19894;48.452;11.494;2023-04-23T08:49:44;19.00;54.20
33564;DHT22;19894;48.452;11.494;2023-04-23T08:52:22;19.00;54.00
33564;DHT22;19894;48.452;11.494;2023-04-23T08:54:51;19.00;54.10
33564;DHT22;19894;48.452;11.494;2023-04-23T08:57:18;19.00;54.00
33564;DHT22;19894;48.452;11.494;2023-04-23T08:59:44;19.00;54.00
33564;DHT22;19894;48.452;11.494;2023-04-23T09:02:11;19.00;54.00
33564;DHT22;19894;48.452;11.494;2023-04-23T09:04:37;19.00;54.00
33564;DHT22;19894;48.452;11.494;2023-04-23T09:07:03;19.00;54.20
33564;DHT22;19894;48.452;11.494;2023-04-23T09:09:29;19.00;54.20
33564;DHT22;19894;48.452;11.494;2023-04-23T09:11:56;19.00;54.30
33564;DHT22;19894;48.452;11.494;2023-04-23T09:14:22;19.00;54.40
33564;DHT22;19894;48.452;11.494;2023-04-23T09:16:50;19.00;54.40
33564;DHT22;19894;48.452;11.494;2023-04-23T09:19:16;19.00;54.40
33564;DHT22;19894;48.452;11.494;2023-04-23T09:21:43;19.00;54.50
33564;DHT22;19894;48.452;11.494;2023-04-23T09:24:10;19.00;54.40
33564;DHT22;19894;48.452;11.494;2023-04-23T09:26:46;19.00;54.40
33564;DHT22;19894;48.452;11.494;2023-04-23T09:29:17;19.00;54.60
33564;DHT22;19894;48.452;11.494;2023-04-23T09:31:47;18.90;54.80
33564;DHT22;19894;48.452;11.494;2023-04-23T09:34:20;19.00;54.80
33564;DHT22;19894;48.452;11.494;2023-04-23T09:36:49;19.00;54.90
33564;DHT22;19894;48.452;11.494;2023-04-23T09:39:17;19.00;54.90
33564;DHT22;19894;48.452;11.494;2023-04-23T09:41:43;19.00;54.90
33564;DHT22;19894;48.452;11.494;2023-04-23T09:44:16;19.00;54.80
33564;DHT22;19894;48.452;11.494;2023-04-23T09:46:42;19.00;54.90
33564;DHT22;19894;48.452;11.494;2023-04-23T09:49:09;19.00;54.90
33564;DHT22;19894;48.452;11.494;2023-04-23T09:51:39;19.00;54.90
33564;DHT22;19894;48.452;11.494;2023-04-23T09:54:19;19.00;54.90
33564;DHT22;19894;48.452;11.494;2023-04-23T09:56:50;19.00;54.80
33564;DHT22;19894;48.452;11.494;2023-04-23T09:59:22;19.10;54.80
33564;DHT22;19894;48.452;11.494;2023-04-23T10:01:48;19.00;54.80
33564;DHT22;19894;48.452;11.494;2023-04-23T10:04:20;19.00;54.80
33564;DHT22;19894;48.452;11.494;2023-04-23T10:07:00;19.00;54.90
33564;DHT22;19894;48.452;11.494;2023-04-23T10:09:27;19.00;54.90
33564;DHT22;19894;48.452;11.494;2023-04-23T10:12:01;19.00;55.00
33564;DHT22;19894;48.452;11.494;2023-04-23T10:14:27;19.00;55.00
33564;DHT22;19894;48.452;11.494;2023-04-23T10:17:03;19.00;55.00
33564;DHT22;19894;48.452;11.494;2023-04-23T10:19:30;19.00;55.00
33564;DHT22;19894;48.452;11.494;2023-04-23T10:21:59;19.00;55.00
33564;DHT22;19894;48.452;11.494;2023-04-23T10:24:31;19.00;55.00
33564;DHT22;19894;48.452;11.494;2023-04-23T10:26:59;19.00;55.00
33564;DHT22;19894;48.452;11.494;2023-04-23T10:29:28;19.00;55.00
33564;DHT22;19894;48.452;11.494;2023-04-23T10:31:59;19.00;55.00
33564;DHT22;19894;48.452;11.494;2023-04-23T10:34:26;19.00;55.10
33564;DHT22;19894;48.452;11.494;2023-04-23T10:36:53;19.00;55.10
33564;DHT22;19894;48.452;11.494;2023-04-23T10:39:23;19.00;55.20
33564;DHT22;19894;48.452;11.494;2023-04-23T10:41:49;19.00;55.20
33564;DHT22;19894;48.452;11.494;2023-04-23T10:44:18;19.00;55.20
33564;DHT22;19894;48.452;11.494;2023-04-23T10:46:53;19.00;55.20
33564;DHT22;19894;48.452;11.494;2023-04-23T10:49:21;19.00;55.10
33564;DHT22;19894;48.452;11.494;2023-04-23T10:51:47;19.00;55.00
33564;DHT22;19894;48.452;11.494;2023-04-23T10:54:14;19.00;55.10
33564;DHT22;19894;48.452;11.494;2023-04-23T10:56:41;19.00;55.00
33564;DHT22;19894;48.452;11.494;2023-04-23T10:59:20;19.10;55.20
33564;DHT22;19894;48.452;11.494;2023-04-23T11:01:46;19.00;55.00
33564;DHT22;19894;48.452;11.494;2023-04-23T11:04:19;19.00;55.00
33564;DHT22;19894;48.452;11.494;2023-04-23T11:09:28;19.00;54.90
33564;DHT22;19894;48.452;11.494;2023-04-23T11:11:55;19.00;54.90
33564;DHT22;19894;48.452;11.494;2023-04-23T11:14:33;19.00;54.90
33564;DHT22;19894;48.452;11.494;2023-04-23T11:17:04;19.00;55.00
33564;DHT22;19894;48.452;11.494;2023-04-23T11:19:34;19.00;55.00
33564;DHT22;19894;48.452;11.494;2023-04-23T11:22:04;19.00;55.00
33564;DHT22;19894;48.452;11.494;2023-04-23T11:24:31;19.00;55.00
33564;DHT22;19894;48.452;11.494;2023-04-23T11:26:58;19.00;55.00
33564;DHT22;19894;48.452;11.494;2023-04-23T11:29:25;19.00;55.00
33564;DHT22;19894;48.452;11.494;2023-04-23T11:31:52;19.00;55.00
33564;DHT22;19894;48.452;11.494;2023-04-23T11:34:19;19.00;55.00
33564;DHT22;19894;48.452;11.494;2023-04-23T11:36:47;19.00;55.10
33564;DHT22;19894;48.452;11.494;2023-04-23T11:39:13;19.00;55.20
33564;DHT22;19894;48.452;11.494;2023-04-23T11:41:39;19.00;55.40
33564;DHT22;19894;48.452;11.494;2023-04-23T11:44:05;19.00;55.40
33564;DHT22;19894;48.452;11.494;2023-04-23T11:46:32;19.00;55.30
33564;DHT22;19894;48.452;11.494;2023-04-23T11:49:01;19.00;55.40
33564;DHT22;19894;48.452;11.494;2023-04-23T11:51:27;19.00;55.50
33564;DHT22;19894;48.452;11.494;2023-04-23T11:53:52;19.00;55.60
33564;DHT22;19894;48.452;11.494;2023-04-23T11:56:18;19.00;55.70
33564;DHT22;19894;48.452;11.494;2023-04-23T11:59:00;19.00;55.70
33564;DHT22;19894;48.452;11.494;2023-04-23T12:01:42;19.00;55.60
33564;DHT22;19894;48.452;11.494;2023-04-23T12:04:08;19.10;55.60
33564;DHT22;19894;48.452;11.494;2023-04-23T12:06:34;19.00;55.40
33564;DHT22;19894;48.452;11.494;2023-04-23T12:09:00;19.00;55.40
33564;DHT22;19894;48.452;11.494;2023-04-23T12:11:26;19.10;55.30
33564;DHT22;19894;48.452;11.494;2023-04-23T12:13:51;19.00;55.30
33564;DHT22;19894;48.452;11.494;2023-04-23T12:16:45;19.00;55.30
33564;DHT22;19894;48.452;11.494;2023-04-23T12:19:16;19.00;55.40
33564;DHT22;19894;48.452;11.494;2023-04-23T12:24:12;19.00;55.40
33564;DHT22;19894;48.452;11.494;2023-04-23T12:26:38;19.00;55.50
33564;DHT22;19894;48.452;11.494;2023-04-23T12:29:06;19.00;55.60
33564;DHT22;19894;48.452;11.494;2023-04-23T12:31:32;19.00;55.60
33564;DHT22;19894;48.452;11.494;2023-04-23T12:34:05;19.00;55.70
33564;DHT22;19894;48.452;11.494;2023-04-23T12:36:34;19.00;55.70
33564;DHT22;19894;48.452;11.494;2023-04-23T12:41:45;19.00;56.10
33564;DHT22;19894;48.452;11.494;2023-04-23T12:44:11;19.00;56.10
33564;DHT22;19894;48.452;11.494;2023-04-23T12:46:37;19.00;56.30
33564;DHT22;19894;48.452;11.494;2023-04-23T12:49:02;19.00;56.30
33564;DHT22;19894;48.452;11.494;2023-04-23T12:51:28;19.00;56.40
33564;DHT22;19894;48.452;11.494;2023-04-23T12:53:53;19.00;56.30
33564;DHT22;19894;48.452;11.494;2023-04-23T12:56:19;19.10;56.40
33564;DHT22;19894;48.452;11.494;2023-04-23T12:58:45;19.00;56.20
33564;DHT22;19894;48.452;11.494;2023-04-23T13:01:10;19.10;56.20
33564;DHT22;19894;48.452;11.494;2023-04-23T13:03:38;19.10;56.10
33564;DHT22;19894;48.452;11.494;2023-04-23T13:06:04;19.00;56.00
33564;DHT22;19894;48.452;11.494;2023-04-23T13:08:29;19.10;55.90
33564;DHT22;19894;48.452;11.494;2023-04-23T13:10:55;19.10;55.80
33564;DHT22;19894;48.452;11.494;2023-04-23T13:13:21;19.10;55.80
33564;DHT22;19894;48.452;11.494;2023-04-23T13:15:46;19.10;55.70
33564;DHT22;19894;48.452;11.494;2023-04-23T13:18:12;19.10;55.70
33564;DHT22;19894;48.452;11.494;2023-04-23T13:20:37;19.10;55.60
33564;DHT22;19894;48.452;11.494;2023-04-23T13:23:03;19.00;55.60
33564;DHT22;19894;48.452;11.494;2023-04-23T13:25:29;19.00;55.60
33564;DHT22;19894;48.452;11.494;2023-04-23T13:27:54;19.00;55.50
33564;DHT22;19894;48.452;11.494;2023-04-23T13:30:20;19.00;55.40
33564;DHT22;19894;48.452;11.494;2023-04-23T13:32:46;19.00;55.30
33564;DHT22;19894;48.452;11.494;2023-04-23T13:35:11;19.00;55.20
33564;DHT22;19894;48.452;11.494;2023-04-23T13:37:38;19.00;55.10
33564;DHT22;19894;48.452;11.494;2023-04-23T13:40:05;19.00;54.90
33564;DHT22;19894;48.452;11.494;2023-04-23T13:42:31;19.00;54.80
33564;DHT22;19894;48.452;11.494;2023-04-23T13:44:58;19.00;54.70
33564;DHT22;19894;48.452;11.494;2023-04-23T13:47:24;19.00;54.70
33564;DHT22;19894;48.452;11.494;2023-04-23T13:49:51;19.00;54.80
33564;DHT22;19894;48.452;11.494;2023-04-23T13:52:17;19.00;54.90
33564;DHT22;19894;48.452;11.494;2023-04-23T13:54:42;19.00;54.90
33564;DHT22;19894;48.452;11.494;2023-04-23T13:57:08;19.00;54.90
33564;DHT22;19894;48.452;11.494;2023-04-23T13:59:34;19.00;54.90
33564;DHT22;19894;48.452;11.494;2023-04-23T14:02:00;19.00;54.80
33564;DHT22;19894;48.452;11.494;2023-04-23T14:04:25;19.00;54.90
33564;DHT22;19894;48.452;11.494;2023-04-23T14:06:51;19.00;54.80
33564;DHT22;19894;48.452;11.494;2023-04-23T14:09:16;19.00;54.70
33564;DHT22;19894;48.452;11.494;2023-04-23T14:11:43;19.00;54.70
33564;DHT22;19894;48.452;11.494;2023-04-23T14:14:08;19.10;54.60
33564;DHT22;19894;48.452;11.494;2023-04-23T14:16:34;19.00;54.40
33564;DHT22;19894;48.452;11.494;2023-04-23T14:19:00;19.10;54.30
33564;DHT22;19894;48.452;11.494;2023-04-23T14:21:26;19.10;54.30
33564;DHT22;19894;48.452;11.494;2023-04-23T14:24:00;19.00;54.10
33564;DHT22;19894;48.452;11.494;2023-04-23T14:28:58;19.00;54.10
33564;DHT22;19894;48.452;11.494;2023-04-23T14:31:26;19.00;54.00
33564;DHT22;19894;48.452;11.494;2023-04-23T14:33:52;19.00;53.90
33564;DHT22;19894;48.452;11.494;2023-04-23T14:36:18;19.00;53.80
33564;DHT22;19894;48.452;11.494;2023-04-23T14:38:43;19.00;53.90
33564;DHT22;19894;48.452;11.494;2023-04-23T14:41:09;19.00;53.90
33564;DHT22;19894;48.452;11.494;2023-04-23T14:43:34;19.00;53.80
33564;DHT22;19894;48.452;11.494;2023-04-23T14:46:02;19.00;53.70
33564;DHT22;19894;48.452;11.494;2023-04-23T14:48:27;19.00;53.70
33564;DHT22;19894;48.452;11.494;2023-04-23T14:50:53;19.00;53.90
33564;DHT22;19894;48.452;11.494;2023-04-23T14:53:19;19.00;53.90
33564;DHT22;19894;48.452;11.494;2023-04-23T14:55:45;19.00;54.00
33564;DHT22;19894;48.452;11.494;2023-04-23T14:58:11;19.00;54.10
33564;DHT22;19894;48.452;11.494;2023-04-23T15:00:37;19.00;54.10
33564;DHT22;19894;48.452;11.494;2023-04-23T15:03:03;19.00;54.10
33564;DHT22;19894;48.452;11.494;2023-04-23T15:05:35;19.00;54.00
33564;DHT22;19894;48.452;11.494;2023-04-23T15:08:00;19.00;54.00
33564;DHT22;19894;48.452;11.494;2023-04-23T15:10:26;19.00;54.00
33564;DHT22;19894;48.452;11.494;2023-04-23T15:16:01;19.00;53.90
33564;DHT22;19894;48.452;11.494;2023-04-23T15:18:28;19.00;53.80
33564;DHT22;19894;48.452;11.494;2023-04-23T15:20:53;19.00;53.80
33564;DHT22;19894;48.452;11.494;2023-04-23T15:23:19;19.10;53.80
33564;DHT22;19894;48.452;11.494;2023-04-23T15:25:48;19.00;53.80